createdAt,value
2022-11-29T00:01:33.551Z,41.90
2022-11-29T00:04:01.803Z,57.00
2022-11-29T00:06:31.489Z,44.58
2022-11-29T00:09:03.085Z,39.47
2022-11-29T00:11:51.492Z,40.70
2022-11-29T00:14:20.717Z,43.35
2022-11-29T00:16:51.875Z,40.05
2022-11-29T00:19:23.304Z,48.75
2022-11-29T00:21:51.756Z,64.38
2022-11-29T00:24:21.607Z,50.80
2022-11-29T00:26:49.640Z,51.25
2022-11-29T00:29:18.417Z,50.25
2022-11-29T00:31:46.930Z,38.03
2022-11-29T00:34:14.849Z,54.88
2022-11-29T00:36:43.343Z,51.45
2022-11-29T00:39:12.636Z,52.42
2022-11-29T00:41:42.435Z,53.47
2022-11-29T00:44:15.309Z,62.55
2022-11-29T00:46:46.877Z,51.57
2022-11-29T00:49:15.348Z,33.13
2022-11-29T00:51:43.473Z,53.45
2022-11-29T00:54:11.753Z,44.72
2022-11-29T00:56:40.730Z,34.90
2022-11-29T00:59:11.349Z,53.13
2022-11-29T01:01:39.785Z,41.92
2022-11-29T01:04:08.457Z,44.47
2022-11-29T01:06:36.781Z,37.70
2022-11-29T01:09:04.949Z,31.13
2022-11-29T01:11:33.494Z,33.53
2022-11-29T01:14:02.414Z,32.97
2022-11-29T01:16:32.812Z,37.05
2022-11-29T01:19:01.017Z,28.90
2022-11-29T01:21:30.448Z,39.30
2022-11-29T01:23:59.029Z,30.23
2022-11-29T01:26:28.777Z,31.00
2022-11-29T01:28:57.835Z,30.67
2022-11-29T01:31:27.760Z,36.55
2022-11-29T01:33:57.979Z,38.42
2022-11-29T01:36:26.658Z,29.98
2022-11-29T01:38:55.843Z,39.10
2022-11-29T01:41:25.562Z,32.90
2022-11-29T01:43:55.623Z,36.05
2022-11-29T01:46:24.249Z,42.67
2022-11-29T01:48:56.353Z,44.17
2022-11-29T01:51:26.747Z,45.17
2022-11-29T01:53:55.165Z,34.08
2022-11-29T01:56:24.003Z,36.63
2022-11-29T01:58:52.975Z,51.42
2022-11-29T02:01:21.443Z,39.90
2022-11-29T02:03:49.961Z,34.30
2022-11-29T02:06:18.379Z,37.38
2022-11-29T02:08:48.247Z,44.08
2022-11-29T02:11:26.454Z,52.60
2022-11-29T02:14:04.143Z,62.42
2022-11-29T02:16:35.609Z,54.60
2022-11-29T02:19:06.796Z,55.92
2022-11-29T02:21:39.690Z,45.92
2022-11-29T02:24:16.218Z,49.72
2022-11-29T02:27:02.197Z,33.90
2022-11-29T02:29:48.791Z,56.15
2022-11-29T02:32:50.283Z,46.83
2022-11-29T02:35:25.490Z,29.70
2022-11-29T02:40:32.817Z,32.42
2022-11-29T02:43:11.657Z,32.58
2022-11-29T02:45:51.756Z,32.92
2022-11-29T02:48:30.382Z,38.58
2022-11-29T02:51:02.922Z,28.83
2022-11-29T02:53:34.641Z,38.10
2022-11-29T02:56:07.975Z,30.90
2022-11-29T02:58:38.290Z,24.60
2022-11-29T03:01:10.808Z,31.42
2022-11-29T03:03:41.862Z,27.83
2022-11-29T03:06:16.368Z,32.92
2022-11-29T03:08:49.289Z,28.33
2022-11-29T03:11:21.716Z,35.28
2022-11-29T03:13:53.683Z,33.30
2022-11-29T03:16:30.565Z,29.58
2022-11-29T03:19:06.438Z,32.28
2022-11-29T03:21:41.967Z,33.85
2022-11-29T03:24:15.575Z,33.00
2022-11-29T03:26:46.094Z,30.23
2022-11-29T03:29:18.358Z,34.55
2022-11-29T03:31:49.044Z,31.08
2022-11-29T03:34:21.893Z,29.63
2022-11-29T03:36:55.193Z,32.22
2022-11-29T03:39:30.055Z,35.75
2022-11-29T03:42:01.264Z,38.83
2022-11-29T03:44:33.112Z,40.50
2022-11-29T03:47:05.292Z,34.60
2022-11-29T03:49:37.282Z,37.47
2022-11-29T03:52:11.892Z,33.13
2022-11-29T03:54:48.512Z,38.80
2022-11-29T03:57:19.617Z,40.92
2022-11-29T03:59:53.523Z,26.67
2022-11-29T04:02:31.163Z,35.63
2022-11-29T04:05:14.651Z,32.95
2022-11-29T04:07:50.427Z,30.52
2022-11-29T04:10:21.621Z,32.17
2022-11-29T04:13:00.699Z,30.75
2022-11-29T04:15:39.329Z,30.98
2022-11-29T04:18:25.382Z,33.83
2022-11-29T04:21:11.892Z,34.33
2022-11-29T04:23:57.790Z,32.20
2022-11-29T04:26:50.613Z,28.47
2022-11-29T04:29:36.719Z,29.92
2022-11-29T04:32:15.823Z,29.40
2022-11-29T04:34:58.153Z,26.73
2022-11-29T04:37:36.959Z,27.55
2022-11-29T04:40:11.877Z,29.80
2022-11-29T04:42:52.797Z,25.55
2022-11-29T04:45:54.236Z,27.75
2022-11-29T04:48:32.717Z,28.17
2022-11-29T04:51:08.225Z,26.38
2022-11-29T04:53:48.783Z,34.47
2022-11-29T04:56:22.134Z,32.25
2022-11-29T04:58:54.742Z,32.13
2022-11-29T05:01:27.036Z,34.72
2022-11-29T05:04:00.707Z,32.08
2022-11-29T05:06:30.679Z,37.55
2022-11-29T05:09:05.217Z,29.48
2022-11-29T05:11:44.315Z,39.28
2022-11-29T05:14:21.353Z,28.38
2022-11-29T05:16:56.125Z,31.80
2022-11-29T05:19:39.557Z,27.30
2022-11-29T05:22:14.837Z,33.30
2022-11-29T05:24:53.989Z,30.25
2022-11-29T05:27:30.455Z,32.45
2022-11-29T05:30:10.295Z,35.55
2022-11-29T05:32:43.930Z,33.83
2022-11-29T05:35:51.015Z,32.05
2022-11-29T05:38:30.818Z,29.98
2022-11-29T05:41:04.956Z,33.42
2022-11-29T05:43:46.499Z,37.00
2022-11-29T05:46:21.590Z,30.42
2022-11-29T05:48:55.852Z,31.90
2022-11-29T05:51:29.301Z,42.67
2022-11-29T05:54:02.527Z,110.22
2022-11-29T05:56:40.137Z,68.13
2022-11-29T05:59:10.177Z,67.90
2022-11-29T06:01:44.046Z,61.33
2022-11-29T06:04:18.427Z,47.60
2022-11-29T06:07:07.014Z,40.05
2022-11-29T06:09:41.510Z,38.17
2022-11-29T06:12:21.204Z,42.22
2022-11-29T06:15:05.509Z,32.55
2022-11-29T06:17:49.994Z,37.83
2022-11-29T06:20:44.571Z,39.97
2022-11-29T06:23:29.292Z,34.20
2022-11-29T06:26:08.805Z,36.25
2022-11-29T06:28:55.399Z,39.80
2022-11-29T06:31:39.535Z,37.97
2022-11-29T06:34:33.132Z,39.17
2022-11-29T06:37:19.073Z,42.13
2022-11-29T06:40:16.086Z,51.33
2022-11-29T06:42:59.782Z,54.33
2022-11-29T06:46:01.094Z,57.95
2022-11-29T06:48:46.225Z,56.95
2022-11-29T06:51:38.572Z,43.42
2022-11-29T06:54:21.711Z,53.53
2022-11-29T06:57:43.794Z,55.27
2022-11-29T07:00:34.752Z,39.83
2022-11-29T07:03:41.764Z,47.00
2022-11-29T07:06:13.561Z,52.83
2022-11-29T07:08:44.856Z,43.22
2022-11-29T07:11:16.758Z,48.08
2022-11-29T07:13:49.332Z,52.95
2022-11-29T07:16:24.576Z,52.53
2022-11-29T07:18:58.826Z,42.42
2022-11-29T07:21:35.913Z,54.53
2022-11-29T07:26:44.457Z,58.58
2022-11-29T07:29:20.585Z,50.85
2022-11-29T07:31:54.281Z,47.28
2022-11-29T07:34:42.566Z,49.45
2022-11-29T07:37:41.799Z,42.13
2022-11-29T07:44:04.772Z,33.40
2022-11-29T07:50:51.828Z,31.75
2022-11-29T07:53:38.218Z,26.02
2022-11-29T07:56:47.248Z,28.50
2022-11-29T07:59:31.165Z,33.47
2022-11-29T08:02:38.998Z,33.20
2022-11-29T08:13:14.137Z,20.95
2022-11-29T08:16:27.451Z,44.05
2022-11-29T08:20:04.894Z,34.72
2022-11-29T08:28:03.778Z,35.20
2022-11-29T08:29:32.082Z,48.90
2022-11-29T08:32:38.986Z,27.42
2022-11-29T08:35:26.127Z,29.30
2022-11-29T08:38:25.859Z,34.38
2022-11-29T08:41:24.341Z,32.80
2022-11-29T08:44:18.166Z,34.78
2022-11-29T08:47:26.000Z,35.50
2022-11-29T08:50:09.329Z,40.50
2022-11-29T08:53:10.227Z,38.70
2022-11-29T08:55:47.011Z,50.47
2022-11-29T08:58:20.636Z,43.40
2022-11-29T09:00:54.055Z,39.17
2022-11-29T09:03:40.498Z,39.65
2022-11-29T09:06:12.729Z,48.60
2022-11-29T09:08:46.968Z,45.17
2022-11-29T09:11:17.696Z,42.50
2022-11-29T09:13:54.160Z,40.78
2022-11-29T09:16:36.534Z,45.92
2022-11-29T09:19:12.021Z,38.60
2022-11-29T09:21:44.371Z,41.33
2022-11-29T09:24:17.356Z,46.58
2022-11-29T09:26:51.363Z,45.95
2022-11-29T09:29:22.652Z,46.67
2022-11-29T09:31:55.369Z,39.13
2022-11-29T09:34:27.874Z,37.95
2022-11-29T09:36:58.547Z,42.53
2022-11-29T09:39:32.607Z,44.25
2022-11-29T09:42:10.525Z,45.63
2022-11-29T09:44:46.557Z,40.78
2022-11-29T09:47:21.569Z,44.80
2022-11-29T09:50:08.861Z,33.30
2022-11-29T09:52:43.720Z,42.13
2022-11-29T09:55:25.207Z,38.25
2022-11-29T09:57:57.955Z,34.47
2022-11-29T10:00:30.158Z,34.90
2022-11-29T10:03:00.622Z,38.60
2022-11-29T10:05:30.616Z,39.53
2022-11-29T10:08:03.779Z,37.83
2022-11-29T10:10:38.007Z,31.38
2022-11-29T10:13:09.385Z,37.90
2022-11-29T10:15:40.328Z,43.03
2022-11-29T10:18:14.515Z,34.80
2022-11-29T10:20:49.515Z,36.95
2022-11-29T10:23:22.778Z,44.40
2022-11-29T10:25:59.681Z,40.63
2022-11-29T10:28:34.431Z,36.40
2022-11-29T10:31:07.166Z,33.28
2022-11-29T10:33:41.694Z,35.33
2022-11-29T10:36:17.019Z,35.75
2022-11-29T10:38:46.430Z,39.03
2022-11-29T10:41:20.043Z,39.22
2022-11-29T10:43:48.697Z,32.03
2022-11-29T10:46:26.501Z,45.25
2022-11-29T10:49:02.054Z,31.45
2022-11-29T10:51:36.736Z,35.78
2022-11-29T10:54:23.414Z,32.03
2022-11-29T10:56:59.977Z,36.25
2022-11-29T11:00:22.509Z,32.35
2022-11-29T11:02:28.562Z,30.65
2022-11-29T11:05:06.797Z,29.70
2022-11-29T11:07:49.471Z,28.13
2022-11-29T11:10:33.974Z,32.00
2022-11-29T11:13:12.881Z,31.80
2022-11-29T11:15:50.935Z,30.35
2022-11-29T11:18:24.586Z,29.30
2022-11-29T11:20:54.329Z,29.75
2022-11-29T11:23:25.373Z,33.13
2022-11-29T11:25:59.936Z,35.70
2022-11-29T11:28:32.575Z,32.72
2022-11-29T11:31:03.224Z,30.65
2022-11-29T11:33:32.952Z,31.10
2022-11-29T11:36:06.183Z,29.35
2022-11-29T11:38:35.082Z,31.52
2022-11-29T11:41:10.232Z,28.33
2022-11-29T11:43:40.915Z,30.58
2022-11-29T11:46:10.057Z,31.88
2022-11-29T11:48:42.147Z,28.58
2022-11-29T11:51:16.023Z,29.60
2022-11-29T11:53:44.625Z,31.52
2022-11-29T11:56:14.625Z,29.80
2022-11-29T11:58:49.335Z,31.90
2022-11-29T12:01:18.517Z,29.05
2022-11-29T12:03:51.445Z,31.10
2022-11-29T12:06:31.151Z,29.02
2022-11-29T12:09:04.113Z,33.63
2022-11-29T12:11:35.426Z,28.35
2022-11-29T12:14:06.869Z,29.85
2022-11-29T12:16:35.974Z,29.05
2022-11-29T12:19:06.363Z,32.35
2022-11-29T12:21:38.075Z,30.52
2022-11-29T12:24:13.351Z,28.50
2022-11-29T12:26:56.960Z,27.13
2022-11-29T12:29:30.705Z,31.58
2022-11-29T12:32:03.863Z,32.47
2022-11-29T12:34:42.381Z,51.80
2022-11-29T12:37:13.669Z,28.30
2022-11-29T12:39:48.552Z,30.40
2022-11-29T12:42:22.795Z,33.85
2022-11-29T12:44:57.729Z,31.42
2022-11-29T12:47:36.053Z,28.05
2022-11-29T12:50:14.582Z,27.67
2022-11-29T12:52:46.917Z,28.38
2022-11-29T12:55:20.718Z,28.55
2022-11-29T12:57:54.664Z,27.08
2022-11-29T13:00:26.001Z,32.42
2022-11-29T13:02:58.296Z,28.65
2022-11-29T13:05:32.251Z,29.02
2022-11-29T13:08:05.026Z,30.55
2022-11-29T13:10:40.868Z,27.00
2022-11-29T13:13:15.275Z,30.48
2022-11-29T13:15:47.445Z,36.20
2022-11-29T13:18:22.410Z,36.20
2022-11-29T13:20:54.691Z,32.53
2022-11-29T13:23:46.213Z,28.13
2022-11-29T13:26:17.337Z,31.33
2022-11-29T13:28:46.476Z,31.95
2022-11-29T13:31:20.283Z,31.67
2022-11-29T13:33:56.685Z,33.85
2022-11-29T13:36:30.446Z,34.95
2022-11-29T13:39:03.231Z,30.65
2022-11-29T13:41:33.423Z,30.65
2022-11-29T13:44:07.763Z,30.42
2022-11-29T13:46:42.891Z,28.50
2022-11-29T13:49:20.940Z,33.67
2022-11-29T13:51:49.658Z,31.58
2022-11-29T13:54:29.689Z,34.83
2022-11-29T13:57:05.394Z,32.28
2022-11-29T13:59:35.090Z,36.30
2022-11-29T14:02:06.408Z,35.60
2022-11-29T14:04:37.156Z,37.67
2022-11-29T14:07:07.078Z,36.00
2022-11-29T14:09:37.187Z,36.55
2022-11-29T14:12:07.108Z,36.63
2022-11-29T14:14:38.877Z,35.97
2022-11-29T14:17:31.362Z,44.78
2022-11-29T14:20:14.682Z,41.05
2022-11-29T14:23:14.641Z,40.50
2022-11-29T14:25:52.454Z,43.28
2022-11-29T14:28:30.675Z,49.40
2022-11-29T14:31:01.748Z,47.20
2022-11-29T14:33:48.499Z,49.13
2022-11-29T14:36:26.869Z,41.50
2022-11-29T14:39:00.289Z,43.28
2022-11-29T14:41:33.184Z,41.70
2022-11-29T14:44:15.606Z,39.45
2022-11-29T14:46:44.362Z,39.88
2022-11-29T14:49:22.065Z,44.08
2022-11-29T14:52:05.725Z,38.03
2022-11-29T14:54:36.178Z,41.97
2022-11-29T14:57:23.273Z,36.70
2022-11-29T14:59:53.982Z,38.25
2022-11-29T15:02:29.345Z,41.60
2022-11-29T15:04:58.308Z,36.67
2022-11-29T15:07:31.378Z,41.85
2022-11-29T15:10:02.501Z,35.78
2022-11-29T15:12:35.334Z,42.55
2022-11-29T15:15:09.343Z,39.42
2022-11-29T15:17:43.240Z,40.88
2022-11-29T15:20:32.445Z,45.55
2022-11-29T15:23:03.477Z,38.90
2022-11-29T15:25:33.839Z,45.83
2022-11-29T15:28:03.223Z,38.95
2022-11-29T15:30:33.216Z,43.22
2022-11-29T15:33:05.535Z,41.90
2022-11-29T15:35:34.424Z,45.80
2022-11-29T15:38:03.958Z,40.72
2022-11-29T15:40:37.219Z,42.85
2022-11-29T15:43:15.018Z,50.58
2022-11-29T15:45:47.930Z,49.90
2022-11-29T15:48:23.561Z,44.85
2022-11-29T15:50:55.130Z,55.15
2022-11-29T15:53:26.954Z,46.22
2022-11-29T15:55:58.607Z,49.50
2022-11-29T15:58:29.576Z,49.15
2022-11-29T16:00:59.517Z,49.30
2022-11-29T16:03:30.132Z,48.20
2022-11-29T16:06:02.352Z,45.97
2022-11-29T16:08:35.452Z,50.95
2022-11-29T16:11:07.193Z,49.30
2022-11-29T16:13:38.092Z,44.55
2022-11-29T16:16:08.522Z,59.15
2022-11-29T16:18:41.123Z,56.92
2022-11-29T16:21:22.471Z,62.92
2022-11-29T16:23:51.025Z,55.58
2022-11-29T16:26:26.686Z,51.63
2022-11-29T16:28:56.468Z,49.58
2022-11-29T16:31:26.915Z,55.92
2022-11-29T16:33:55.499Z,59.22
2022-11-29T16:36:27.413Z,50.00
2022-11-29T16:39:07.013Z,50.38
2022-11-29T16:41:38.535Z,54.03
2022-11-29T16:44:08.554Z,54.08
2022-11-29T16:46:41.054Z,52.22
2022-11-29T16:49:28.347Z,53.40
2022-11-29T16:51:57.500Z,60.10
2022-11-29T16:54:27.696Z,55.30
2022-11-29T16:56:59.517Z,56.13
2022-11-29T16:59:29.090Z,59.33
2022-11-29T17:01:58.597Z,82.00
2022-11-29T17:04:30.568Z,74.32
2022-11-29T17:06:59.890Z,63.10
2022-11-29T17:09:29.494Z,76.80
2022-11-29T17:12:01.098Z,66.82
2022-11-29T17:14:29.827Z,60.40
2022-11-29T17:17:00.729Z,62.75
2022-11-29T17:19:30.203Z,58.75
2022-11-29T17:21:58.935Z,74.35
2022-11-29T17:24:27.521Z,75.43
2022-11-29T17:26:55.656Z,68.13
2022-11-29T17:29:26.172Z,66.80
2022-11-29T17:31:54.787Z,69.00
2022-11-29T17:34:22.873Z,67.40
2022-11-29T17:36:51.893Z,68.45
2022-11-29T17:39:21.658Z,73.07
2022-11-29T17:41:50.133Z,74.75
2022-11-29T17:44:18.752Z,64.75
2022-11-29T17:46:48.937Z,56.08
2022-11-29T17:49:18.963Z,68.30
2022-11-29T17:51:52.657Z,68.78
2022-11-29T17:54:21.873Z,53.03
2022-11-29T17:56:53.032Z,64.00
2022-11-29T17:59:21.637Z,71.43
2022-11-29T18:01:54.856Z,113.78
2022-11-29T18:04:23.706Z,144.68
2022-11-29T18:06:54.984Z,164.80
2022-11-29T18:09:23.627Z,177.75
2022-11-29T18:11:53.028Z,184.05
2022-11-29T18:14:23.040Z,183.65
2022-11-29T18:16:51.984Z,195.43
2022-11-29T18:19:22.713Z,197.32
2022-11-29T18:21:53.779Z,188.15
2022-11-29T18:24:22.440Z,188.43
2022-11-29T18:26:50.792Z,194.52
2022-11-29T18:29:20.388Z,179.10
2022-11-29T18:31:50.393Z,182.98
2022-11-29T18:34:19.007Z,182.43
2022-11-29T18:36:49.783Z,170.45
2022-11-29T18:39:19.151Z,172.55
2022-11-29T18:41:47.867Z,158.80
2022-11-29T18:44:17.705Z,157.98
2022-11-29T18:46:46.642Z,154.57
2022-11-29T18:49:35.085Z,147.07
2022-11-29T18:52:05.175Z,151.38
2022-11-29T18:54:33.287Z,135.60
2022-11-29T18:57:01.873Z,120.55
2022-11-29T18:59:30.878Z,133.32
2022-11-29T19:01:59.145Z,48.67
2022-11-29T19:04:27.432Z,90.53
2022-11-29T19:06:56.101Z,113.65
2022-11-29T19:09:26.018Z,98.65
2022-11-29T19:11:54.177Z,115.25
2022-11-29T19:14:22.807Z,110.07
2022-11-29T19:16:51.240Z,75.32
2022-11-29T19:19:45.049Z,87.28
2022-11-29T19:22:13.304Z,42.30
2022-11-29T19:24:51.400Z,42.15
2022-11-29T19:27:21.319Z,72.55
2022-11-29T19:29:53.867Z,57.45
2022-11-29T19:32:22.231Z,34.67
2022-11-29T19:34:56.795Z,36.63
2022-11-29T19:37:25.242Z,40.80
2022-11-29T19:39:58.015Z,36.80
2022-11-29T19:42:32.355Z,44.42
2022-11-29T19:45:16.335Z,40.20
2022-11-29T19:47:44.990Z,39.03
2022-11-29T19:50:13.297Z,48.85
2022-11-29T19:52:41.919Z,102.93
2022-11-29T19:55:12.887Z,139.35
2022-11-29T19:57:41.324Z,134.10
2022-11-29T20:00:10.260Z,119.63
2022-11-29T20:02:39.132Z,122.57
2022-11-29T20:05:08.237Z,117.65
2022-11-29T20:07:36.759Z,85.88
2022-11-29T20:10:07.125Z,86.57
2022-11-29T20:12:37.689Z,65.20
2022-11-29T20:15:06.656Z,53.97
2022-11-29T20:17:37.386Z,66.07
2022-11-29T20:20:06.422Z,65.40
2022-11-29T20:22:38.377Z,60.83
2022-11-29T20:25:10.089Z,89.82
2022-11-29T20:27:40.025Z,146.07
2022-11-29T20:30:10.542Z,74.38
2022-11-29T20:32:39.199Z,123.50
2022-11-29T20:35:08.442Z,129.35
2022-11-29T20:37:47.657Z,100.18
2022-11-29T20:40:17.973Z,59.80
2022-11-29T20:43:04.090Z,40.10
2022-11-29T20:45:34.284Z,45.45
2022-11-29T20:48:05.509Z,51.25
2022-11-29T20:50:34.062Z,33.53
2022-11-29T20:53:11.221Z,34.67
2022-11-29T20:55:43.701Z,28.33
2022-11-29T20:58:16.141Z,28.52
2022-11-29T21:00:48.978Z,26.10
2022-11-29T21:03:17.952Z,22.00
2022-11-29T21:05:47.114Z,22.33
2022-11-29T21:08:16.656Z,23.70
2022-11-29T21:10:45.556Z,23.25
2022-11-29T21:13:15.044Z,25.65
2022-11-29T21:15:44.074Z,33.55
2022-11-29T21:18:21.469Z,34.40
2022-11-29T21:20:56.146Z,32.03
2022-11-29T21:23:30.768Z,32.92
2022-11-29T21:26:02.405Z,45.45
2022-11-29T21:28:33.835Z,46.78
2022-11-29T21:31:02.096Z,38.75
2022-11-29T21:33:34.561Z,24.75
2022-11-29T21:36:05.276Z,15.85
2022-11-29T21:38:33.564Z,16.27
2022-11-29T21:41:01.664Z,14.30
2022-11-29T21:43:57.911Z,14.27
2022-11-29T21:46:18.095Z,12.60
2022-11-29T21:48:47.833Z,13.18
2022-11-29T21:51:15.855Z,12.93
2022-11-29T21:53:43.907Z,52.65
2022-11-29T21:56:12.715Z,60.30
2022-11-29T21:58:41.512Z,41.15
2022-11-29T22:01:11.160Z,52.05
2022-11-29T22:03:39.511Z,50.35
2022-11-29T22:06:10.581Z,44.45
2022-11-29T22:08:40.025Z,40.47
2022-11-29T22:11:09.565Z,44.63
2022-11-29T22:13:58.158Z,43.97
2022-11-29T22:16:26.728Z,36.08
2022-11-29T22:18:55.312Z,35.22
2022-11-29T22:21:25.076Z,34.30
2022-11-29T22:23:53.459Z,40.08
2022-11-29T22:26:21.572Z,31.77
2022-11-29T22:28:49.998Z,31.73
2022-11-29T22:31:18.739Z,28.73
2022-11-29T22:33:46.844Z,35.03
2022-11-29T22:36:15.447Z,39.88
2022-11-29T22:38:45.449Z,58.70
2022-11-29T22:41:14.917Z,79.40
2022-11-29T22:43:43.862Z,63.45
2022-11-29T22:46:13.598Z,46.80
2022-11-29T22:48:45.104Z,45.00
2022-11-29T22:51:13.928Z,41.20
2022-11-29T22:53:42.821Z,37.92
2022-11-29T22:56:13.124Z,45.17
2022-11-29T22:58:41.673Z,43.03
2022-11-29T23:01:10.984Z,42.85
2022-11-29T23:03:40.439Z,51.30
2022-11-29T23:06:09.649Z,40.47
2022-11-29T23:08:38.067Z,42.40
2022-11-29T23:11:07.506Z,48.45
2022-11-29T23:13:37.633Z,46.33
2022-11-29T23:16:07.622Z,44.25
2022-11-29T23:18:36.047Z,36.72
2022-11-29T23:21:04.998Z,34.53
2022-11-29T23:23:33.358Z,36.15
2022-11-29T23:26:01.425Z,39.35
2022-11-29T23:28:30.814Z,41.40
2022-11-29T23:31:01.098Z,42.58
2022-11-29T23:33:29.706Z,35.67
2022-11-29T23:36:01.040Z,31.80
2022-11-29T23:38:29.701Z,30.67
2022-11-29T23:40:58.333Z,29.15
2022-11-29T23:43:29.935Z,30.75
2022-11-29T23:45:58.070Z,25.77
2022-11-29T23:48:28.109Z,25.95
2022-11-29T23:50:57.847Z,22.65
2022-11-29T23:53:27.002Z,22.38
2022-11-29T23:55:59.096Z,24.30
2022-11-29T23:58:27.911Z,25.13
